sensor_id;sensor_type;location;lat;lon;timestamp;P1;durP1;ratioP1;P2;durP2;ratioP2
36243;SDS011;22284;49.956;19.816;2023-09-19T00:02:38;18.50;;;11.70;;
36243;SDS011;22284;49.956;19.816;2023-09-19T00:09:17;19.80;;;12.30;;
36243;SDS011;22284;49.956;19.816;2023-09-19T00:12:43;19.90;;;12.10;;
36243;SDS011;22284;49.956;19.816;2023-09-19T00:15:55;20.30;;;12.90;;
36243;SDS011;22284;49.956;19.816;2023-09-19T00:19:08;21.30;;;12.10;;
36243;SDS011;22284;49.956;19.816;2023-09-19T00:22:32;20.70;;;12.80;;
36243;SDS011;22284;49.956;19.816;2023-09-19T00:25:37;24.00;;;12.70;;
36243;SDS011;22284;49.956;19.816;2023-09-19T00:29:11;21.30;;;12.80;;
36243;SDS011;22284;49.956;19.816;2023-09-19T00:32:18;21.60;;;13.40;;
36243;SDS011;22284;49.956;19.816;2023-09-19T00:35:33;20.80;;;13.90;;
36243;SDS011;22284;49.956;19.816;2023-09-19T00:38:35;21.40;;;13.80;;
36243;SDS011;22284;49.956;19.816;2023-09-19T00:41:47;22.00;;;14.10;;
36243;SDS011;22284;49.956;19.816;2023-09-19T00:44:52;22.10;;;14.80;;
36243;SDS011;22284;49.956;19.816;2023-09-19T00:48:15;22.80;;;15.10;;
36243;SDS011;22284;49.956;19.816;2023-09-19T00:55:02;25.50;;;15.00;;
36243;SDS011;22284;49.956;19.816;2023-09-19T00:58:16;23.80;;;15.30;;
36243;SDS011;22284;49.956;19.816;2023-09-19T01:01:43;23.40;;;14.30;;
36243;SDS011;22284;49.956;19.816;2023-09-19T01:04:58;21.60;;;13.00;;
36243;SDS011;22284;49.956;19.816;2023-09-19T01:08:09;23.20;;;14.50;;
36243;SDS011;22284;49.956;19.816;2023-09-19T01:11:42;23.10;;;14.10;;
36243;SDS011;22284;49.956;19.816;2023-09-19T01:18:04;20.60;;;14.10;;
36243;SDS011;22284;49.956;19.816;2023-09-19T01:21:51;25.50;;;15.40;;
36243;SDS011;22284;49.956;19.816;2023-09-19T01:32:49;25.70;;;15.90;;
36243;SDS011;22284;49.956;19.816;2023-09-19T01:36:37;25.00;;;14.60;;
36243;SDS011;22284;49.956;19.816;2023-09-19T01:39:55;22.00;;;15.00;;
36243;SDS011;22284;49.956;19.816;2023-09-19T01:43:29;22.90;;;15.10;;
36243;SDS011;22284;49.956;19.816;2023-09-19T01:50:54;26.30;;;16.10;;
36243;SDS011;22284;49.956;19.816;2023-09-19T01:54:19;22.90;;;15.00;;
36243;SDS011;22284;49.956;19.816;2023-09-19T01:57:44;24.20;;;15.00;;
36243;SDS011;22284;49.956;19.816;2023-09-19T02:01:29;24.00;;;15.10;;
36243;SDS011;22284;49.956;19.816;2023-09-19T02:04:34;22.70;;;14.80;;
36243;SDS011;22284;49.956;19.816;2023-09-19T02:07:42;21.60;;;14.80;;
36243;SDS011;22284;49.956;19.816;2023-09-19T02:18:25;23.30;;;14.60;;
36243;SDS011;22284;49.956;19.816;2023-09-19T02:33:30;22.60;;;14.30;;
36243;SDS011;22284;49.956;19.816;2023-09-19T02:47:13;23.10;;;15.70;;
36243;SDS011;22284;49.956;19.816;2023-09-19T02:50:29;24.40;;;16.30;;
36243;SDS011;22284;49.956;19.816;2023-09-19T02:53:41;25.80;;;18.10;;
36243;SDS011;22284;49.956;19.816;2023-09-19T02:57:14;29.50;;;18.00;;
36243;SDS011;22284;49.956;19.816;2023-09-19T03:00:33;26.50;;;18.60;;
36243;SDS011;22284;49.956;19.816;2023-09-19T03:04:02;26.60;;;17.80;;
36243;SDS011;22284;49.956;19.816;2023-09-19T03:07:21;30.70;;;19.20;;
36243;SDS011;22284;49.956;19.816;2023-09-19T03:10:29;30.20;;;19.30;;
36243;SDS011;22284;49.956;19.816;2023-09-19T03:13:54;29.50;;;18.90;;
36243;SDS011;22284;49.956;19.816;2023-09-19T03:17:26;32.90;;;20.30;;
36243;SDS011;22284;49.956;19.816;2023-09-19T03:20:55;29.50;;;19.20;;
36243;SDS011;22284;49.956;19.816;2023-09-19T03:24:17;27.90;;;18.80;;
36243;SDS011;22284;49.956;19.816;2023-09-19T03:27:30;31.00;;;20.50;;
36243;SDS011;22284;49.956;19.816;2023-09-19T03:30:58;27.00;;;19.50;;
36243;SDS011;22284;49.956;19.816;2023-09-19T03:34:09;28.00;;;19.10;;
36243;SDS011;22284;49.956;19.816;2023-09-19T03:41:09;28.60;;;18.70;;
36243;SDS011;22284;49.956;19.816;2023-09-19T03:44:44;28.90;;;19.00;;
36243;SDS011;22284;49.956;19.816;2023-09-19T03:48:24;30.30;;;19.70;;
36243;SDS011;22284;49.956;19.816;2023-09-19T03:51:37;25.10;;;18.10;;
36243;SDS011;22284;49.956;19.816;2023-09-19T03:55:09;26.80;;;18.70;;
36243;SDS011;22284;49.956;19.816;2023-09-19T03:58:16;28.50;;;19.50;;
36243;SDS011;22284;49.956;19.816;2023-09-19T04:04:59;26.60;;;18.30;;
36243;SDS011;22284;49.956;19.816;2023-09-19T04:08:08;26.00;;;18.10;;
36243;SDS011;22284;49.956;19.816;2023-09-19T04:11:29;25.10;;;18.20;;
36243;SDS011;22284;49.956;19.816;2023-09-19T04:21:33;26.00;;;18.70;;
36243;SDS011;22284;49.956;19.816;2023-09-19T04:24:58;28.60;;;18.30;;
36243;SDS011;22284;49.956;19.816;2023-09-19T04:31:36;29.30;;;19.10;;
36243;SDS011;22284;49.956;19.816;2023-09-19T04:34:49;29.40;;;19.90;;
36243;SDS011;22284;49.956;19.816;2023-09-19T04:38:10;28.90;;;20.50;;
36243;SDS011;22284;49.956;19.816;2023-09-19T04:41:44;33.80;;;21.10;;
36243;SDS011;22284;49.956;19.816;2023-09-19T04:48:20;26.50;;;19.20;;
36243;SDS011;22284;49.956;19.816;2023-09-19T04:51:38;28.70;;;19.00;;
36243;SDS011;22284;49.956;19.816;2023-09-19T04:59:00;28.60;;;18.70;;
36243;SDS011;22284;49.956;19.816;2023-09-19T05:02:24;28.80;;;19.00;;
36243;SDS011;22284;49.956;19.816;2023-09-19T05:05:40;29.20;;;18.20;;
36243;SDS011;22284;49.956;19.816;2023-09-19T05:12:26;30.90;;;19.30;;
36243;SDS011;22284;49.956;19.816;2023-09-19T05:19:10;29.50;;;20.10;;
36243;SDS011;22284;49.956;19.816;2023-09-19T05:22:17;30.70;;;20.70;;
36243;SDS011;22284;49.956;19.816;2023-09-19T05:25:46;29.00;;;20.20;;
36243;SDS011;22284;49.956;19.816;2023-09-19T05:29:06;34.70;;;22.20;;
36243;SDS011;22284;49.956;19.816;2023-09-19T05:32:12;29.40;;;19.70;;
36243;SDS011;22284;49.956;19.816;2023-09-19T05:35:17;30.60;;;19.40;;
36243;SDS011;22284;49.956;19.816;2023-09-19T05:38:24;29.30;;;20.00;;
36243;SDS011;22284;49.956;19.816;2023-09-19T05:45:53;31.60;;;20.70;;
36243;SDS011;22284;49.956;19.816;2023-09-19T05:59:59;35.50;;;21.60;;
36243;SDS011;22284;49.956;19.816;2023-09-19T06:07:02;34.70;;;20.00;;
36243;SDS011;22284;49.956;19.816;2023-09-19T06:10:28;30.30;;;19.40;;
36243;SDS011;22284;49.956;19.816;2023-09-19T06:20:07;31.10;;;21.20;;
36243;SDS011;22284;49.956;19.816;2023-09-19T06:23:15;32.80;;;21.10;;
36243;SDS011;22284;49.956;19.816;2023-09-19T06:26:28;33.60;;;21.30;;
36243;SDS011;22284;49.956;19.816;2023-09-19T06:33:21;30.20;;;20.30;;
36243;SDS011;22284;49.956;19.816;2023-09-19T06:37:06;32.30;;;21.40;;
36243;SDS011;22284;49.956;19.816;2023-09-19T06:44:31;29.90;;;20.90;;
36243;SDS011;22284;49.956;19.816;2023-09-19T06:47:34;29.00;;;21.00;;
36243;SDS011;22284;49.956;19.816;2023-09-19T06:50:49;33.30;;;21.80;;
36243;SDS011;22284;49.956;19.816;2023-09-19T06:53:54;32.30;;;22.40;;
36243;SDS011;22284;49.956;19.816;2023-09-19T07:00:25;28.50;;;20.50;;
36243;SDS011;22284;49.956;19.816;2023-09-19T07:03:36;29.80;;;21.20;;
36243;SDS011;22284;49.956;19.816;2023-09-19T07:06:51;29.80;;;20.10;;
36243;SDS011;22284;49.956;19.816;2023-09-19T07:10:05;28.30;;;19.90;;
36243;SDS011;22284;49.956;19.816;2023-09-19T07:13:07;30.90;;;21.00;;
36243;SDS011;22284;49.956;19.816;2023-09-19T07:16:24;29.00;;;19.90;;
36243;SDS011;22284;49.956;19.816;2023-09-19T07:19:53;26.90;;;19.20;;
36243;SDS011;22284;49.956;19.816;2023-09-19T07:23:38;28.10;;;19.30;;
36243;SDS011;22284;49.956;19.816;2023-09-19T07:34:25;27.00;;;19.20;;
36243;SDS011;22284;49.956;19.816;2023-09-19T07:45:46;16.50;;;10.50;;
36243;SDS011;22284;49.956;19.816;2023-09-19T07:49:01;15.80;;;7.40;;
36243;SDS011;22284;49.956;19.816;2023-09-19T07:52:09;9.70;;;6.00;;
36243;SDS011;22284;49.956;19.816;2023-09-19T07:55:22;8.60;;;5.60;;
36243;SDS011;22284;49.956;19.816;2023-09-19T07:58:27;7.10;;;4.90;;
36243;SDS011;22284;49.956;19.816;2023-09-19T08:08:28;6.00;;;3.90;;
36243;SDS011;22284;49.956;19.816;2023-09-19T08:11:32;9.10;;;3.90;;
36243;SDS011;22284;49.956;19.816;2023-09-19T08:14:54;8.30;;;5.00;;
36243;SDS011;22284;49.956;19.816;2023-09-19T08:29:26;9.20;;;5.40;;
36243;SDS011;22284;49.956;19.816;2023-09-19T08:44:30;8.20;;;5.40;;
36243;SDS011;22284;49.956;19.816;2023-09-19T08:47:37;11.30;;;6.20;;
36243;SDS011;22284;49.956;19.816;2023-09-19T08:51:00;11.40;;;6.40;;
36243;SDS011;22284;49.956;19.816;2023-09-19T08:54:08;12.30;;;6.20;;
36243;SDS011;22284;49.956;19.816;2023-09-19T08:57:16;10.00;;;6.00;;
36243;SDS011;22284;49.956;19.816;2023-09-19T09:00:30;12.80;;;6.70;;
36243;SDS011;22284;49.956;19.816;2023-09-19T09:03:35;13.00;;;6.40;;
36243;SDS011;22284;49.956;19.816;2023-09-19T09:06:49;13.90;;;6.50;;
36243;SDS011;22284;49.956;19.816;2023-09-19T09:09:55;9.90;;;5.90;;
36243;SDS011;22284;49.956;19.816;2023-09-19T09:13:06;13.80;;;6.00;;
36243;SDS011;22284;49.956;19.816;2023-09-19T09:16:16;9.00;;;6.00;;
36243;SDS011;22284;49.956;19.816;2023-09-19T09:19:21;8.50;;;6.00;;
36243;SDS011;22284;49.956;19.816;2023-09-19T09:22:54;7.50;;;5.10;;
36243;SDS011;22284;49.956;19.816;2023-09-19T09:30:32;10.10;;;5.90;;
36243;SDS011;22284;49.956;19.816;2023-09-19T09:34:14;12.20;;;6.20;;
36243;SDS011;22284;49.956;19.816;2023-09-19T09:41:05;9.50;;;5.50;;
36243;SDS011;22284;49.956;19.816;2023-09-19T09:44:34;9.80;;;5.40;;
36243;SDS011;22284;49.956;19.816;2023-09-19T10:03:47;10.00;;;5.80;;
36243;SDS011;22284;49.956;19.816;2023-09-19T10:07:35;12.40;;;6.30;;
36243;SDS011;22284;49.956;19.816;2023-09-19T10:14:25;10.00;;;6.20;;
36243;SDS011;22284;49.956;19.816;2023-09-19T10:17:48;11.40;;;6.50;;
36243;SDS011;22284;49.956;19.816;2023-09-19T10:21:03;9.00;;;5.80;;
36243;SDS011;22284;49.956;19.816;2023-09-19T10:24:19;9.50;;;6.10;;
36243;SDS011;22284;49.956;19.816;2023-09-19T10:27:22;8.20;;;5.90;;
36243;SDS011;22284;49.956;19.816;2023-09-19T10:30:27;12.70;;;7.20;;
36243;SDS011;22284;49.956;19.816;2023-09-19T10:33:44;9.80;;;5.90;;
36243;SDS011;22284;49.956;19.816;2023-09-19T10:40:18;8.60;;;5.30;;
36243;SDS011;22284;49.956;19.816;2023-09-19T10:43:27;13.90;;;6.00;;
36243;SDS011;22284;49.956;19.816;2023-09-19T10:46:47;8.40;;;5.10;;
36243;SDS011;22284;49.956;19.816;2023-09-19T10:50:08;7.50;;;4.90;;
36243;SDS011;22284;49.956;19.816;2023-09-19T10:53:17;8.50;;;4.50;;
36243;SDS011;22284;49.956;19.816;2023-09-19T10:56:32;8.70;;;4.90;;
36243;SDS011;22284;49.956;19.816;2023-09-19T11:03:33;10.90;;;4.90;;
36243;SDS011;22284;49.956;19.816;2023-09-19T11:06:56;7.50;;;4.80;;
36243;SDS011;22284;49.956;19.816;2023-09-19T11:10:06;9.90;;;5.30;;
36243;SDS011;22284;49.956;19.816;2023-09-19T11:13:46;9.30;;;5.10;;
36243;SDS011;22284;49.956;19.816;2023-09-19T11:17:30;6.90;;;5.50;;
36243;SDS011;22284;49.956;19.816;2023-09-19T11:20:33;11.10;;;5.90;;
36243;SDS011;22284;49.956;19.816;2023-09-19T11:24:27;17.80;;;6.60;;
36243;SDS011;22284;49.956;19.816;2023-09-19T11:27:32;9.10;;;5.80;;
36243;SDS011;22284;49.956;19.816;2023-09-19T11:39:09;11.00;;;5.70;;
36243;SDS011;22284;49.956;19.816;2023-09-19T11:50:27;9.20;;;4.90;;
36243;SDS011;22284;49.956;19.816;2023-09-19T11:57:48;11.50;;;6.60;;
36243;SDS011;22284;49.956;19.816;2023-09-19T12:00:56;11.00;;;6.00;;
36243;SDS011;22284;49.956;19.816;2023-09-19T12:04:19;7.80;;;5.00;;
36243;SDS011;22284;49.956;19.816;2023-09-19T12:07:50;8.60;;;5.30;;
36243;SDS011;22284;49.956;19.816;2023-09-19T12:14:33;10.40;;;5.60;;
36243;SDS011;22284;49.956;19.816;2023-09-19T12:21:22;10.10;;;5.30;;
36243;SDS011;22284;49.956;19.816;2023-09-19T12:24:35;8.00;;;5.00;;
36243;SDS011;22284;49.956;19.816;2023-09-19T12:31:26;9.20;;;5.20;;
36243;SDS011;22284;49.956;19.816;2023-09-19T12:34:49;8.70;;;5.00;;
36243;SDS011;22284;49.956;19.816;2023-09-19T12:38:07;9.70;;;5.30;;
36243;SDS011;22284;49.956;19.816;2023-09-19T12:45:15;9.20;;;5.60;;
36243;SDS011;22284;49.956;19.816;2023-09-19T12:48:41;9.30;;;6.00;;
36243;SDS011;22284;49.956;19.816;2023-09-19T12:51:45;8.70;;;5.80;;
36243;SDS011;22284;49.956;19.816;2023-09-19T12:55:06;9.10;;;5.70;;
36243;SDS011;22284;49.956;19.816;2023-09-19T12:58:12;11.10;;;6.20;;
36243;SDS011;22284;49.956;19.816;2023-09-19T13:05:11;9.80;;;5.70;;
36243;SDS011;22284;49.956;19.816;2023-09-19T13:12:02;10.40;;;6.00;;
36243;SDS011;22284;49.956;19.816;2023-09-19T13:15:51;11.00;;;6.90;;
36243;SDS011;22284;49.956;19.816;2023-09-19T13:19:34;9.00;;;6.00;;
36243;SDS011;22284;49.956;19.816;2023-09-19T13:22:58;9.20;;;6.10;;
36243;SDS011;22284;49.956;19.816;2023-09-19T13:26:20;9.80;;;6.70;;
36243;SDS011;22284;49.956;19.816;2023-09-19T13:29:25;10.10;;;6.50;;
36243;SDS011;22284;49.956;19.816;2023-09-19T13:36:27;10.60;;;5.90;;
36243;SDS011;22284;49.956;19.816;2023-09-19T13:39:32;9.90;;;6.00;;
36243;SDS011;22284;49.956;19.816;2023-09-19T13:42:40;10.50;;;6.00;;
36243;SDS011;22284;49.956;19.816;2023-09-19T13:45:57;8.90;;;5.60;;
36243;SDS011;22284;49.956;19.816;2023-09-19T13:52:45;11.40;;;6.00;;
36243;SDS011;22284;49.956;19.816;2023-09-19T13:55:48;8.80;;;5.80;;
36243;SDS011;22284;49.956;19.816;2023-09-19T13:59:00;9.00;;;5.30;;
36243;SDS011;22284;49.956;19.816;2023-09-19T14:05:45;6.00;;;4.70;;
36243;SDS011;22284;49.956;19.816;2023-09-19T14:08:58;7.40;;;4.80;;
36243;SDS011;22284;49.956;19.816;2023-09-19T14:12:22;9.10;;;5.00;;
36243;SDS011;22284;49.956;19.816;2023-09-19T14:15:54;7.80;;;4.60;;
36243;SDS011;22284;49.956;19.816;2023-09-19T14:19:01;6.40;;;4.60;;
36243;SDS011;22284;49.956;19.816;2023-09-19T14:22:32;7.10;;;4.70;;
36243;SDS011;22284;49.956;19.816;2023-09-19T14:25:39;9.20;;;5.00;;
36243;SDS011;22284;49.956;19.816;2023-09-19T14:28:53;10.90;;;5.50;;
36243;SDS011;22284;49.956;19.816;2023-09-19T14:32:25;9.70;;;5.30;;
36243;SDS011;22284;49.956;19.816;2023-09-19T14:36:02;7.70;;;5.50;;
36243;SDS011;22284;49.956;19.816;2023-09-19T14:39:15;8.80;;;5.20;;
36243;SDS011;22284;49.956;19.816;2023-09-19T14:42:32;8.10;;;5.50;;
36243;SDS011;22284;49.956;19.816;2023-09-19T14:45:56;7.90;;;5.10;;
36243;SDS011;22284;49.956;19.816;2023-09-19T14:49:34;6.60;;;5.20;;
36243;SDS011;22284;49.956;19.816;2023-09-19T14:52:43;7.40;;;4.90;;
36243;SDS011;22284;49.956;19.816;2023-09-19T14:56:04;9.90;;;4.80;;
36243;SDS011;22284;49.956;19.816;2023-09-19T14:59:09;8.60;;;5.20;;
36243;SDS011;22284;49.956;19.816;2023-09-19T15:02:27;11.00;;;5.20;;
36243;SDS011;22284;49.956;19.816;2023-09-19T15:06:12;9.20;;;5.20;;
36243;SDS011;22284;49.956;19.816;2023-09-19T15:13:02;9.60;;;5.20;;
36243;SDS011;22284;49.956;19.816;2023-09-19T15:20:22;10.90;;;5.10;;
36243;SDS011;22284;49.956;19.816;2023-09-19T15:24:07;7.20;;;5.10;;
36243;SDS011;22284;49.956;19.816;2023-09-19T15:31:23;9.50;;;5.40;;
36243;SDS011;22284;49.956;19.816;2023-09-19T15:42:47;8.80;;;5.40;;
36243;SDS011;22284;49.956;19.816;2023-09-19T15:50:04;9.30;;;5.30;;
36243;SDS011;22284;49.956;19.816;2023-09-19T16:01:29;12.10;;;5.90;;
36243;SDS011;22284;49.956;19.816;2023-09-19T16:35:30;9.60;;;5.30;;
36243;SDS011;22284;49.956;19.816;2023-09-19T16:39:02;6.00;;;4.90;;
36243;SDS011;22284;49.956;19.816;2023-09-19T16:42:08;8.40;;;5.70;;
36243;SDS011;22284;49.956;19.816;2023-09-19T16:45:13;9.80;;;5.80;;
36243;SDS011;22284;49.956;19.816;2023-09-19T16:51:51;12.40;;;5.80;;
36243;SDS011;22284;49.956;19.816;2023-09-19T16:54:56;8.70;;;5.40;;
36243;SDS011;22284;49.956;19.816;2023-09-19T16:58:26;8.50;;;5.60;;
36243;SDS011;22284;49.956;19.816;2023-09-19T17:01:54;10.60;;;5.80;;
36243;SDS011;22284;49.956;19.816;2023-09-19T17:05:28;8.80;;;5.20;;
36243;SDS011;22284;49.956;19.816;2023-09-19T17:11:56;8.40;;;4.90;;
36243;SDS011;22284;49.956;19.816;2023-09-19T17:15:17;9.30;;;5.40;;
36243;SDS011;22284;49.956;19.816;2023-09-19T17:18:22;8.20;;;5.00;;
36243;SDS011;22284;49.956;19.816;2023-09-19T17:21:29;9.60;;;4.50;;
36243;SDS011;22284;49.956;19.816;2023-09-19T17:24:41;8.30;;;5.00;;
36243;SDS011;22284;49.956;19.816;2023-09-19T17:27:49;10.90;;;4.90;;
36243;SDS011;22284;49.956;19.816;2023-09-19T17:31:25;9.20;;;5.30;;
36243;SDS011;22284;49.956;19.816;2023-09-19T17:34:36;11.40;;;4.80;;
36243;SDS011;22284;49.956;19.816;2023-09-19T17:41:17;9.70;;;4.80;;
36243;SDS011;22284;49.956;19.816;2023-09-19T17:44:19;6.70;;;4.70;;
36243;SDS011;22284;49.956;19.816;2023-09-19T17:51:10;7.50;;;4.30;;
36243;SDS011;22284;49.956;19.816;2023-09-19T17:54:32;6.60;;;3.90;;
36243;SDS011;22284;49.956;19.816;2023-09-19T17:57:54;7.50;;;4.10;;
36243;SDS011;22284;49.956;19.816;2023-09-19T18:11:58;8.60;;;5.00;;
36243;SDS011;22284;49.956;19.816;2023-09-19T18:15:28;17.50;;;10.90;;
36243;SDS011;22284;49.956;19.816;2023-09-19T18:18:47;77.40;;;61.50;;
36243;SDS011;22284;49.956;19.816;2023-09-19T18:33:19;17.70;;;9.50;;
36243;SDS011;22284;49.956;19.816;2023-09-19T18:36:49;17.80;;;6.90;;
36243;SDS011;22284;49.956;19.816;2023-09-19T18:44:03;10.70;;;5.80;;
36243;SDS011;22284;49.956;19.816;2023-09-19T18:47:18;8.80;;;5.00;;
36243;SDS011;22284;49.956;19.816;2023-09-19T18:50:24;9.00;;;4.40;;
36243;SDS011;22284;49.956;19.816;2023-09-19T18:53:27;8.70;;;4.40;;
36243;SDS011;22284;49.956;19.816;2023-09-19T18:56:31;7.10;;;4.10;;
36243;SDS011;22284;49.956;19.816;2023-09-19T18:59:36;6.40;;;4.20;;
36243;SDS011;22284;49.956;19.816;2023-09-19T19:02:38;8.80;;;4.10;;
36243;SDS011;22284;49.956;19.816;2023-09-19T19:05:41;7.20;;;4.00;;
36243;SDS011;22284;49.956;19.816;2023-09-19T19:08:43;8.10;;;3.80;;
36243;SDS011;22284;49.956;19.816;2023-09-19T19:11:47;7.90;;;4.10;;
36243;SDS011;22284;49.956;19.816;2023-09-19T19:14:52;10.60;;;4.10;;
36243;SDS011;22284;49.956;19.816;2023-09-19T19:18:18;5.70;;;3.90;;
36243;SDS011;22284;49.956;19.816;2023-09-19T19:22:07;9.90;;;3.70;;
36243;SDS011;22284;49.956;19.816;2023-09-19T19:25:19;6.10;;;3.70;;
36243;SDS011;22284;49.956;19.816;2023-09-19T19:40:04;11.60;;;4.50;;
36243;SDS011;22284;49.956;19.816;2023-09-19T19:43:41;9.80;;;4.70;;
36243;SDS011;22284;49.956;19.816;2023-09-19T19:46:53;8.40;;;5.10;;
36243;SDS011;22284;49.956;19.816;2023-09-19T19:49:55;13.00;;;6.30;;
36243;SDS011;22284;49.956;19.816;2023-09-19T19:53:00;16.60;;;7.60;;
36243;SDS011;22284;49.956;19.816;2023-09-19T19:56:02;14.10;;;7.30;;
36243;SDS011;22284;49.956;19.816;2023-09-19T19:59:07;14.20;;;8.00;;
36243;SDS011;22284;49.956;19.816;2023-09-19T20:02:10;18.30;;;8.10;;
36243;SDS011;22284;49.956;19.816;2023-09-19T20:05:18;12.60;;;7.60;;
36243;SDS011;22284;49.956;19.816;2023-09-19T20:08:20;10.60;;;5.90;;
36243;SDS011;22284;49.956;19.816;2023-09-19T20:11:22;13.40;;;6.00;;
36243;SDS011;22284;49.956;19.816;2023-09-19T20:14:30;10.50;;;5.20;;
36243;SDS011;22284;49.956;19.816;2023-09-19T20:17:32;10.50;;;5.10;;
36243;SDS011;22284;49.956;19.816;2023-09-19T20:20:41;8.30;;;5.10;;
36243;SDS011;22284;49.956;19.816;2023-09-19T20:23:46;9.40;;;4.70;;
36243;SDS011;22284;49.956;19.816;2023-09-19T20:26:49;8.80;;;4.50;;
36243;SDS011;22284;49.956;19.816;2023-09-19T20:29:53;9.10;;;4.30;;
36243;SDS011;22284;49.956;19.816;2023-09-19T20:32:56;9.00;;;4.30;;
36243;SDS011;22284;49.956;19.816;2023-09-19T20:36:14;7.50;;;4.00;;
36243;SDS011;22284;49.956;19.816;2023-09-19T20:39:16;8.10;;;4.30;;
36243;SDS011;22284;49.956;19.816;2023-09-19T20:42:18;9.20;;;4.50;;
36243;SDS011;22284;49.956;19.816;2023-09-19T20:45:23;9.80;;;5.00;;
36243;SDS011;22284;49.956;19.816;2023-09-19T20:48:33;13.40;;;4.70;;
36243;SDS011;22284;49.956;19.816;2023-09-19T20:51:39;10.10;;;5.10;;
36243;SDS011;22284;49.956;19.816;2023-09-19T20:54:40;8.70;;;5.30;;
36243;SDS011;22284;49.956;19.816;2023-09-19T20:57:44;10.20;;;4.90;;
36243;SDS011;22284;49.956;19.816;2023-09-19T21:00:49;7.40;;;5.00;;
36243;SDS011;22284;49.956;19.816;2023-09-19T21:03:51;9.20;;;5.10;;
36243;SDS011;22284;49.956;19.816;2023-09-19T21:06:55;9.10;;;5.40;;
36243;SDS011;22284;49.956;19.816;2023-09-19T21:09:58;9.90;;;4.70;;
36243;SDS011;22284;49.956;19.816;2023-09-19T21:13:00;7.40;;;4.10;;
36243;SDS011;22284;49.956;19.816;2023-09-19T21:16:02;12.60;;;4.60;;
36243;SDS011;22284;49.956;19.816;2023-09-19T21:19:04;14.00;;;4.80;;
36243;SDS011;22284;49.956;19.816;2023-09-19T21:22:06;9.30;;;4.90;;
36243;SDS011;22284;49.956;19.816;2023-09-19T21:25:11;11.80;;;5.10;;
36243;SDS011;22284;49.956;19.816;2023-09-19T21:28:13;9.60;;;5.40;;
36243;SDS011;22284;49.956;19.816;2023-09-19T21:31:15;9.40;;;4.90;;
36243;SDS011;22284;49.956;19.816;2023-09-19T21:34:18;9.20;;;4.80;;
36243;SDS011;22284;49.956;19.816;2023-09-19T21:37:31;9.20;;;4.90;;
36243;SDS011;22284;49.956;19.816;2023-09-19T21:40:33;7.60;;;5.00;;
36243;SDS011;22284;49.956;19.816;2023-09-19T21:43:34;7.30;;;4.60;;
36243;SDS011;22284;49.956;19.816;2023-09-19T21:46:37;7.70;;;4.40;;
36243;SDS011;22284;49.956;19.816;2023-09-19T21:49:40;8.40;;;4.80;;
36243;SDS011;22284;49.956;19.816;2023-09-19T21:52:42;11.90;;;4.40;;
36243;SDS011;22284;49.956;19.816;2023-09-19T21:55:44;10.20;;;5.00;;
36243;SDS011;22284;49.956;19.816;2023-09-19T21:58:46;8.40;;;4.60;;
36243;SDS011;22284;49.956;19.816;2023-09-19T22:01:48;6.90;;;5.00;;
36243;SDS011;22284;49.956;19.816;2023-09-19T22:04:50;8.50;;;4.30;;
36243;SDS011;22284;49.956;19.816;2023-09-19T22:08:20;9.10;;;4.40;;
36243;SDS011;22284;49.956;19.816;2023-09-19T22:11:21;6.60;;;4.40;;
36243;SDS011;22284;49.956;19.816;2023-09-19T22:14:23;7.70;;;4.20;;
36243;SDS011;22284;49.956;19.816;2023-09-19T22:17:30;8.70;;;4.80;;
36243;SDS011;22284;49.956;19.816;2023-09-19T22:20:33;8.20;;;4.50;;
36243;SDS011;22284;49.956;19.816;2023-09-19T22:23:46;7.30;;;4.40;;
36243;SDS011;22284;49.956;19.816;2023-09-19T22:27:19;8.10;;;4.60;;
36243;SDS011;22284;49.956;19.816;2023-09-19T22:30:58;7.30;;;4.40;;
36243;SDS011;22284;49.956;19.816;2023-09-19T22:43:07;5.40;;;3.90;;
36243;SDS011;22284;49.956;19.816;2023-09-19T22:54:52;7.50;;;3.80;;
36243;SDS011;22284;49.956;19.816;2023-09-19T22:58:03;8.50;;;4.50;;
36243;SDS011;22284;49.956;19.816;2023-09-19T23:01:15;6.40;;;4.20;;
36243;SDS011;22284;49.956;19.816;2023-09-19T23:04:41;5.50;;;4.60;;
36243;SDS011;22284;49.956;19.816;2023-09-19T23:07:44;7.50;;;4.50;;
36243;SDS011;22284;49.956;19.816;2023-09-19T23:10:55;6.50;;;4.40;;
36243;SDS011;22284;49.956;19.816;2023-09-19T23:13:57;7.60;;;4.20;;
36243;SDS011;22284;49.956;19.816;2023-09-19T23:20:02;5.70;;;3.80;;
36243;SDS011;22284;49.956;19.816;2023-09-19T23:23:10;7.80;;;4.20;;
36243;SDS011;22284;49.956;19.816;2023-09-19T23:26:16;7.40;;;4.40;;
36243;SDS011;22284;49.956;19.816;2023-09-19T23:29:18;6.60;;;4.10;;
36243;SDS011;22284;49.956;19.816;2023-09-19T23:32:20;7.80;;;4.30;;
36243;SDS011;22284;49.956;19.816;2023-09-19T23:35:22;4.60;;;3.80;;
36243;SDS011;22284;49.956;19.816;2023-09-19T23:38:24;8.10;;;4.10;;
36243;SDS011;22284;49.956;19.816;2023-09-19T23:41:26;5.90;;;4.20;;
36243;SDS011;22284;49.956;19.816;2023-09-19T23:44:31;4.90;;;3.80;;
36243;SDS011;22284;49.956;19.816;2023-09-19T23:47:35;5.00;;;3.70;;
36243;SDS011;22284;49.956;19.816;2023-09-19T23:50:38;7.90;;;4.20;;
36243;SDS011;22284;49.956;19.816;2023-09-19T23:53:46;8.20;;;4.50;;
36243;SDS011;22284;49.956;19.816;2023-09-19T23:56:55;6.10;;;4.10;;
36243;SDS011;22284;49.956;19.816;2023-09-19T23:59:59;7.60;;;4.40;;
